Time;durP1;ratioP1;P1;durP2;ratioP2;P2;SDS_P1;SDS_P2;PMS_P1;PMS_P2;Temp;Humidity;BMP_temperature;BMP_pressure;BME280_temperature;BME280_humidity;BME280_pressure;Samples;Min_cycle;Max_cycle;Signal;HPM_P1;HPM_P2
2022/07/31 00:00:54;;;;;;;1.98;1.48;;;;;;;17.82;88.32;101739.53;5074391;28;20020;-72
2022/07/31 00:03:20;;;;;;;2.55;1.80;;;;;;;17.84;88.61;101739.38;5080427;28;20229;-71
2022/07/31 00:05:45;;;;;;;12.35;1.95;;;;;;;17.87;88.35;101739.00;5070721;28;20035;-71
2022/07/31 00:08:11;;;;;;;1.88;1.50;;;;;;;17.91;89.06;101737.66;5083609;28;20028;-72
2022/07/31 00:10:36;;;;;;;2.95;2.10;;;;;;;17.84;88.29;101726.84;5076525;28;20028;-72
2022/07/31 00:13:02;;;;;;;3.25;2.17;;;;;;;17.83;89.10;101725.19;5072409;28;20032;-72
2022/07/31 00:15:27;;;;;;;3.45;1.85;;;;;;;17.91;89.01;101739.50;5051878;28;20021;-71
2022/07/31 00:17:53;;;;;;;4.07;2.05;;;;;;;17.90;89.60;101744.00;5074509;28;20032;-72
2022/07/31 00:20:18;;;;;;;3.00;2.38;;;;;;;17.83;88.62;101737.69;5077997;28;20495;-71
2022/07/31 00:22:46;;;;;;;4.68;1.95;;;;;;;17.86;88.78;101746.19;5076480;28;20025;-72
2022/07/31 00:25:13;;;;;;;2.67;1.83;;;;;;;17.79;88.93;101741.69;5073470;28;20050;-71
2022/07/31 00:27:40;;;;;;;4.00;2.13;;;;;;;17.81;90.01;101742.34;5074107;28;20043;-72
2022/07/31 00:30:06;;;;;;;3.55;2.15;;;;;;;17.73;89.10;101716.53;5077680;28;20410;-72
2022/07/31 00:32:31;;;;;;;2.90;2.47;;;;;;;17.72;88.99;101724.72;5073974;28;20043;-72
2022/07/31 00:34:57;;;;;;;5.65;2.67;;;;;;;17.76;89.39;101737.53;5076654;28;20028;-72
2022/07/31 00:37:22;;;;;;;4.05;2.75;;;;;;;17.75;89.55;101729.72;5076085;28;20035;-72
2022/07/31 00:39:48;;;;;;;4.38;2.10;;;;;;;17.71;90.37;101726.56;5073892;28;20397;-72
2022/07/31 00:42:22;;;;;;;2.92;1.70;;;;;;;17.77;90.00;101730.34;5075236;28;20035;-72
2022/07/31 00:44:47;;;;;;;4.25;2.05;;;;;;;17.67;90.18;101712.72;5068203;28;20024;-72
2022/07/31 00:47:13;;;;;;;2.47;1.98;;;;;;;17.76;89.57;101724.19;5071483;28;20033;-71
2022/07/31 00:49:39;;;;;;;1.40;1.30;;;;;;;17.70;90.40;101706.19;5077138;28;20128;-71
2022/07/31 00:52:05;;;;;;;2.60;2.35;;;;;;;17.74;90.56;101722.69;5070511;28;20034;-72
2022/07/31 00:54:31;;;;;;;3.45;2.25;;;;;;;17.70;89.59;101714.19;5079911;28;20029;-72
2022/07/31 00:56:56;;;;;;;6.80;2.92;;;;;;;17.74;89.54;101714.69;5073695;28;20071;-72
2022/07/31 00:59:22;;;;;;;5.93;4.18;;;;;;;17.69;89.80;101705.38;5076620;28;20520;-72
2022/07/31 01:01:47;;;;;;;8.07;3.22;;;;;;;17.76;89.98;101718.03;5068461;28;20032;-72
2022/07/31 01:04:15;;;;;;;5.35;3.13;;;;;;;17.66;89.52;101699.56;5074796;28;20020;-72
2022/07/31 01:06:40;;;;;;;4.78;2.67;;;;;;;17.71;89.22;101720.41;5056361;28;20051;-72
2022/07/31 01:09:06;;;;;;;1.90;1.52;;;;;;;17.76;89.18;101720.69;5073161;28;20024;-72
2022/07/31 01:11:46;;;;;;;4.80;1.92;;;;;;;17.69;89.47;101704.53;5074156;28;20036;-72
2022/07/31 01:14:13;;;;;;;5.55;2.40;;;;;;;17.71;90.00;101709.72;5072753;28;20074;-72
2022/07/31 01:16:47;;;;;;;3.85;2.15;;;;;;;17.66;89.19;101703.06;5075243;28;20025;-72
2022/07/31 01:19:31;;;;;;;3.38;2.13;;;;;;;17.62;90.46;101703.59;5069548;28;20031;-72
2022/07/31 01:22:15;;;;;;;3.55;2.13;;;;;;;17.58;89.63;101689.75;5077818;28;20392;-72
2022/07/31 01:25:05;;;;;;;4.68;2.40;;;;;;;17.58;89.85;101695.09;5072350;28;20127;-72
2022/07/31 01:28:08;;;;;;;2.75;2.30;;;;;;;17.56;90.03;101699.78;5059858;28;20504;-71
2022/07/31 01:30:44;;;;;;;3.75;2.33;;;;;;;17.50;90.19;101689.78;5072436;28;20504;-71
2022/07/31 01:33:14;;;;;;;2.92;1.60;;;;;;;17.60;89.61;101702.94;5072701;28;20024;-72
2022/07/31 01:35:46;;;;;;;3.42;2.13;;;;;;;17.52;90.03;101670.94;5071825;28;20046;-72
2022/07/31 01:38:16;;;;;;;4.05;2.03;;;;;;;17.66;89.53;101695.06;5055964;28;20036;-72
2022/07/31 01:40:45;;;;;;;3.10;1.52;;;;;;;17.62;89.69;101682.25;5075738;28;20038;-72
2022/07/31 01:43:38;;;;;;;2.80;1.70;;;;;;;17.65;89.45;101676.53;5068198;28;20499;-72
2022/07/31 01:46:08;;;;;;;2.22;1.70;;;;;;;17.67;88.94;101686.03;5069015;28;20058;-72
2022/07/31 01:48:35;;;;;;;2.92;1.60;;;;;;;17.58;89.08;101672.91;5068759;28;20104;-72
2022/07/31 01:51:02;;;;;;;3.33;2.10;;;;;;;17.57;89.46;101682.78;5073692;28;20215;-72
2022/07/31 01:53:33;;;;;;;2.40;1.80;;;;;;;17.55;89.35;101674.09;5069036;28;20090;-72
2022/07/31 01:55:59;;;;;;;1.90;1.42;;;;;;;17.51;89.77;101666.59;5070006;28;20024;-72
2022/07/31 01:58:26;;;;;;;2.47;1.83;;;;;;;17.50;89.03;101668.44;5072756;28;20074;-72
2022/07/31 02:00:57;;;;;;;2.92;1.38;;;;;;;17.34;89.49;101650.69;5069683;28;20119;-72
2022/07/31 02:03:24;;;;;;;2.85;1.88;;;;;;;17.44;89.83;101663.81;5053856;28;20024;-72
2022/07/31 02:05:50;;;;;;;4.35;2.30;;;;;;;17.42;89.71;101665.81;5071673;28;20016;-72
2022/07/31 02:08:18;;;;;;;3.03;2.72;;;;;;;17.31;89.75;101653.72;5070750;28;20034;-72
2022/07/31 02:10:44;;;;;;;3.72;2.15;;;;;;;17.43;89.79;101665.66;5070885;28;20024;-72
2022/07/31 02:13:12;;;;;;;2.72;1.92;;;;;;;17.42;89.65;101671.16;5069829;28;20055;-72
2022/07/31 02:15:40;;;;;;;2.40;1.63;;;;;;;17.36;89.60;101659.34;5075360;28;20548;-72
2022/07/31 02:18:07;;;;;;;3.03;1.90;;;;;;;17.39;89.26;101666.19;5071845;28;20020;-72
2022/07/31 02:20:33;;;;;;;4.13;1.88;;;;;;;17.36;90.37;101656.69;5068794;28;20590;-72
2022/07/31 02:23:00;;;;;;;6.80;1.92;;;;;;;17.40;90.32;101662.53;5072893;28;20305;-72
2022/07/31 02:25:26;;;;;;;3.65;1.73;;;;;;;17.40;90.05;101667.84;5074516;28;20060;-71
2022/07/31 02:27:54;;;;;;;2.47;1.63;;;;;;;17.40;89.39;101662.53;5073122;28;20039;-71
2022/07/31 02:30:20;;;;;;;2.80;2.28;;;;;;;17.42;89.10;101665.81;5072355;28;20024;-72
2022/07/31 02:32:47;;;;;;;1.92;1.67;;;;;;;17.39;89.90;101666.19;5079072;28;20040;-72
2022/07/31 02:35:15;;;;;;;5.13;2.22;;;;;;;17.28;89.97;101649.53;5057967;28;20485;-72
2022/07/31 02:37:42;;;;;;;3.10;2.00;;;;;;;17.42;90.20;101666.66;5070641;28;20023;-72
2022/07/31 02:40:12;;;;;;;3.20;2.10;;;;;;;17.33;89.74;101651.69;5076638;28;20492;-72
2022/07/31 02:42:39;;;;;;;3.80;2.00;;;;;;;17.35;89.26;101655.00;5070584;28;20289;-72
2022/07/31 02:45:09;;;;;;;2.90;2.03;;;;;;;17.37;89.80;101654.84;5072135;28;20119;-72
2022/07/31 02:47:36;;;;;;;4.15;2.65;;;;;;;17.35;90.20;101656.84;5071246;28;20391;-72
2022/07/31 02:50:03;;;;;;;3.30;1.95;;;;;;;17.34;89.93;101652.53;5071478;28;20032;-72
2022/07/31 02:52:29;;;;;;;2.83;2.20;;;;;;;17.23;90.38;101657.25;5069419;28;20020;-72
2022/07/31 02:54:56;;;;;;;2.33;1.85;;;;;;;17.19;90.22;101647.94;5073304;28;20024;-72
2022/07/31 02:57:22;;;;;;;3.40;2.00;;;;;;;17.18;91.26;101642.75;5070476;28;20024;-72
2022/07/31 02:59:47;;;;;;;2.33;1.73;;;;;;;17.17;90.48;101644.59;5071889;28;20024;-72
2022/07/31 03:02:12;;;;;;;2.08;1.75;;;;;;;17.17;91.14;101647.28;5075721;28;20326;-72
2022/07/31 03:04:38;;;;;;;2.40;1.95;;;;;;;17.21;90.91;101640.59;5075813;28;20300;-72
2022/07/31 03:07:03;;;;;;;2.10;1.42;;;;;;;17.25;90.80;101633.91;5077822;28;20093;-72
2022/07/31 03:09:29;;;;;;;3.42;1.70;;;;;;;17.20;89.97;101625.59;5070661;28;20052;-72
2022/07/31 03:11:55;;;;;;;2.53;1.83;;;;;;;17.32;90.48;101631.38;5078312;28;20028;-72
2022/07/31 03:14:22;;;;;;;2.40;1.50;;;;;;;17.22;89.88;101617.41;5073895;28;20870;-72
2022/07/31 03:16:49;;;;;;;3.17;2.22;;;;;;;17.20;89.82;101630.94;5074992;28;20042;-72
2022/07/31 03:19:15;;;;;;;3.45;1.50;;;;;;;17.15;90.95;101627.13;5075469;28;20121;-72
2022/07/31 03:21:41;;;;;;;5.13;1.83;;;;;;;17.06;90.53;101616.47;5072300;28;20033;-72
2022/07/31 03:24:07;;;;;;;3.63;1.73;;;;;;;17.09;90.88;101617.97;5073162;28;20025;-72
2022/07/31 03:26:32;;;;;;;2.60;1.80;;;;;;;17.08;91.09;101610.97;5075938;28;20052;-71
2022/07/31 03:29:01;;;;;;;2.08;1.60;;;;;;;17.01;90.54;101599.34;5075100;28;20024;-71
2022/07/31 03:31:26;;;;;;;5.80;2.33;;;;;;;17.08;90.71;101615.50;5074514;28;20485;-71
2022/07/31 03:33:52;;;;;;;2.75;2.10;;;;;;;16.99;90.41;101590.69;5071152;28;20025;-71
2022/07/31 03:36:17;;;;;;;6.72;2.40;;;;;;;17.02;90.80;101601.84;5075572;28;20032;-72
2022/07/31 03:38:43;;;;;;;4.70;2.00;;;;;;;17.05;90.38;101603.34;5071025;28;20074;-72
2022/07/31 03:41:09;;;;;;;4.72;2.20;;;;;;;17.09;90.99;101604.63;5075498;28;20063;-72
2022/07/31 03:43:36;;;;;;;2.25;1.85;;;;;;;17.01;91.02;101578.84;5071212;28;20029;-72
2022/07/31 03:46:02;;;;;;;2.45;1.85;;;;;;;17.05;91.22;101595.34;5076156;28;20247;-71
2022/07/31 03:48:29;;;;;;;3.47;2.03;;;;;;;17.04;91.07;101599.00;5068306;28;20082;-71
2022/07/31 03:50:55;;;;;;;2.92;2.03;;;;;;;16.99;91.69;101596.03;5076833;28;20032;-71
2022/07/31 03:53:21;;;;;;;5.75;1.92;;;;;;;17.08;91.34;101599.50;5076103;28;20438;-71
2022/07/31 03:55:47;;;;;;;5.57;2.03;;;;;;;17.10;90.70;101598.31;5072989;28;20035;-71
2022/07/31 03:58:13;;;;;;;3.35;1.90;;;;;;;17.02;90.29;101585.81;5070503;28;20029;-71
2022/07/31 04:00:42;;;;;;;2.72;1.67;;;;;;;17.04;90.77;101588.34;5070519;28;20455;-71
2022/07/31 04:03:10;;;;;;;2.08;1.67;;;;;;;17.05;90.32;101590.00;5073588;28;20464;-72
2022/07/31 04:05:37;;;;;;;3.35;1.70;;;;;;;17.06;89.88;101575.66;5072893;28;20027;-72
2022/07/31 04:08:03;;;;;;;2.63;1.50;;;;;;;16.98;89.67;101567.69;5075829;28;20472;-72
2022/07/31 04:10:29;;;;;;;1.95;1.40;;;;;;;17.10;89.91;101592.97;5072705;28;20035;-72
2022/07/31 04:12:54;;;;;;;2.40;1.92;;;;;;;17.05;88.92;101598.00;5073102;28;20028;-72
2022/07/31 04:15:20;;;;;;;2.75;1.65;;;;;;;16.86;89.49;101576.09;5072464;28;20028;-72
2022/07/31 04:17:45;;;;;;;3.30;1.92;;;;;;;16.99;90.02;101591.53;5072337;28;20039;-72
2022/07/31 04:20:10;;;;;;;2.53;1.75;;;;;;;17.00;89.30;101601.16;5074085;28;20039;-71
2022/07/31 04:22:37;;;;;;;2.90;1.92;;;;;;;16.98;89.10;101602.34;5073018;28;20028;-72
2022/07/31 04:25:04;;;;;;;2.47;1.60;;;;;;;16.95;90.13;101594.72;5075777;28;20438;-71
2022/07/31 04:27:30;;;;;;;2.50;1.70;;;;;;;16.87;89.28;101582.25;5071397;28;20074;-72
2022/07/31 04:29:56;;;;;;;4.00;2.47;;;;;;;16.93;89.53;101596.72;5053026;28;20040;-72
2022/07/31 04:32:22;;;;;;;2.58;1.70;;;;;;;16.93;89.71;101594.06;5071856;28;20029;-72
2022/07/31 04:34:48;;;;;;;2.50;1.90;;;;;;;16.79;90.15;101569.75;5072025;28;20049;-72
2022/07/31 04:37:15;;;;;;;3.00;2.50;;;;;;;16.90;90.13;101591.72;5075648;28;20307;-71
2022/07/31 04:39:40;;;;;;;3.33;2.13;;;;;;;17.00;89.88;101587.84;5074403;28;20626;-71
2022/07/31 04:42:06;;;;;;;2.60;1.75;;;;;;;17.12;89.14;101593.63;5070107;28;20119;-71
2022/07/31 04:44:31;;;;;;;2.22;1.67;;;;;;;17.15;90.00;101589.78;5072922;28;20082;-72
2022/07/31 04:47:00;;;;;;;4.10;2.22;;;;;;;17.18;89.84;101584.06;5069232;28;20547;-72
2022/07/31 04:49:26;;;;;;;3.75;2.13;;;;;;;17.35;89.94;101590.16;5075106;28;20047;-72
2022/07/31 04:51:51;;;;;;;4.75;1.65;;;;;;;17.44;89.25;101583.75;5072508;28;20028;-72
2022/07/31 04:54:17;;;;;;;2.38;1.63;;;;;;;17.53;88.88;101588.03;5074545;28;20020;-72
2022/07/31 04:56:43;;;;;;;3.85;1.60;;;;;;;17.52;88.81;101591.72;5072281;28;20025;-72
2022/07/31 04:59:13;;;;;;;2.88;1.70;;;;;;;17.47;88.33;101570.88;5071055;28;20040;-72
2022/07/31 05:01:41;;;;;;;3.30;1.83;;;;;;;17.51;88.38;101590.06;5076702;28;20035;-72
2022/07/31 05:04:07;;;;;;;3.65;1.60;;;;;;;17.45;87.73;101585.44;5073169;28;20051;-72
2022/07/31 05:06:45;;;;;;;2.72;1.77;;;;;;;17.36;87.95;101591.84;5072529;28;20489;-72
2022/07/31 05:09:16;;;;;;;2.88;1.73;;;;;;;17.28;89.10;101582.03;5069935;28;20035;-72
2022/07/31 05:11:41;;;;;;;;;;;;;;;17.27;89.50;101578.53;5074457;28;20025;-71
2022/07/31 05:14:08;;;;;;;2.22;1.58;;;;;;;17.25;89.24;101564.53;5070923;28;19919;-72
2022/07/31 05:16:35;;;;;;;3.00;1.67;;;;;;;17.39;89.02;101575.47;5077341;28;20094;-72
2022/07/31 05:19:01;;;;;;;2.03;1.60;;;;;;;17.28;89.26;101552.69;5074421;28;20038;-71
2022/07/31 05:21:29;;;;;;;1.83;1.42;;;;;;;17.24;88.73;101552.19;5073345;28;20024;-71
2022/07/31 05:23:55;;;;;;;2.63;1.58;;;;;;;17.42;89.15;101572.41;5072231;28;20039;-71
2022/07/31 05:26:21;;;;;;;3.28;1.90;;;;;;;17.33;88.87;101560.16;5069344;28;20036;-70
2022/07/31 05:28:48;;;;;;;2.58;1.88;;;;;;;17.37;88.56;101566.78;5057588;28;20063;-71
2022/07/31 05:31:15;;;;;;;4.20;1.85;;;;;;;17.46;88.56;101569.25;5073059;28;20039;-71
2022/07/31 05:33:40;;;;;;;2.65;1.45;;;;;;;17.48;87.87;101569.91;5075070;28;20496;-71
2022/07/31 05:36:07;;;;;;;2.50;1.90;;;;;;;17.43;87.75;101560.75;5070897;28;20028;-71
2022/07/31 05:38:33;;;;;;;3.55;1.77;;;;;;;17.47;88.37;101559.41;5074227;28;20032;-71
2022/07/31 05:40:58;;;;;;;2.72;1.58;;;;;;;17.53;88.15;101553.34;5071810;28;20033;-71
2022/07/31 05:43:24;;;;;;;5.78;2.40;;;;;;;17.51;87.90;101551.84;5068808;28;20028;-71
2022/07/31 05:45:49;;;;;;;7.68;2.38;;;;;;;17.57;87.83;101553.81;5069952;28;20031;-71
2022/07/31 05:48:16;;;;;;;3.80;1.33;;;;;;;17.66;88.11;101556.25;5060312;28;20031;-71
2022/07/31 05:50:42;;;;;;;2.85;1.55;;;;;;;17.78;88.18;101553.97;5075489;28;20058;-71
2022/07/31 05:53:11;;;;;;;1.90;1.67;;;;;;;17.84;87.44;101547.13;5072607;28;20056;-71
2022/07/31 05:55:38;;;;;;;3.78;1.90;;;;;;;17.79;85.92;101546.78;5073304;28;20396;-71
2022/07/31 05:58:03;;;;;;;2.35;1.55;;;;;;;17.78;86.37;101547.81;5072250;28;20024;-71
2022/07/31 06:00:29;;;;;;;2.13;1.30;;;;;;;17.76;85.81;101539.97;5070621;28;20102;-71
2022/07/31 06:02:55;;;;;;;2.20;1.63;;;;;;;17.93;85.78;101543.34;5075693;28;20384;-71
2022/07/31 06:05:21;;;;;;;3.63;1.63;;;;;;;18.06;85.50;101540.88;5075355;28;20452;-71
2022/07/31 06:07:46;;;;;;;4.47;1.40;;;;;;;18.20;86.46;101528.53;5060437;28;20056;-74
2022/07/31 06:10:12;;;;;;;2.97;1.70;;;;;;;18.36;84.09;101543.59;5072172;28;20036;-71
2022/07/31 06:12:37;;;;;;;3.13;1.60;;;;;;;18.37;85.50;101550.56;5068813;28;20029;-71
2022/07/31 06:15:02;;;;;;;2.22;1.40;;;;;;;18.42;85.38;101550.00;5075891;28;20052;-71
2022/07/31 06:17:28;;;;;;;1.55;1.08;;;;;;;18.60;84.58;101557.69;5070236;28;20131;-71
2022/07/31 06:19:53;;;;;;;1.60;1.33;;;;;;;18.70;84.49;101550.19;5058809;28;20036;-71
2022/07/31 06:22:19;;;;;;;10.27;1.73;;;;;;;18.63;84.38;101546.59;5072868;28;20019;-71
2022/07/31 06:24:44;;;;;;;3.63;1.00;;;;;;;18.85;83.19;101551.00;5056482;28;20063;-71
2022/07/31 06:27:09;;;;;;;1.92;1.60;;;;;;;18.83;82.45;101552.22;5072379;28;20059;-71
2022/07/31 06:29:35;;;;;;;3.00;1.65;;;;;;;18.84;82.94;101543.19;5073235;28;20462;-71
2022/07/31 06:32:00;;;;;;;1.88;1.42;;;;;;;18.83;82.28;101541.53;5072017;28;20144;-71
2022/07/31 06:34:25;;;;;;;2.92;1.33;;;;;;;18.88;82.59;101555.19;5074541;28;20060;-71
2022/07/31 06:36:51;;;;;;;2.78;1.40;;;;;;;19.00;82.66;101559.00;5058603;28;20488;-71
2022/07/31 06:39:16;;;;;;;2.40;1.63;;;;;;;19.05;82.42;101551.28;5078323;28;20476;-71
2022/07/31 06:41:48;;;;;;;1.60;1.27;;;;;;;19.08;81.66;101540.19;5073303;28;20439;-71
2022/07/31 06:44:18;;;;;;;2.60;1.60;;;;;;;19.21;81.46;101544.03;5075879;28;20031;-71
2022/07/31 06:46:48;;;;;;;6.40;2.10;;;;;;;19.31;80.98;101539.16;5078092;28;20396;-71
2022/07/31 06:49:13;;;;;;;2.80;1.50;;;;;;;19.24;80.78;101525.72;5078480;28;20028;-71
2022/07/31 06:51:39;;;;;;;5.78;1.48;;;;;;;19.48;80.20;101513.78;5074204;28;20046;-71
2022/07/31 06:54:07;;;;;;;1.58;1.02;;;;;;;19.56;79.18;101518.19;5076012;28;20036;-71
2022/07/31 06:56:34;;;;;;;2.97;1.63;;;;;;;19.47;79.89;101503.31;5073346;28;20052;-71
2022/07/31 06:59:00;;;;;;;2.67;2.03;;;;;;;19.35;80.44;101518.22;5075005;28;20029;-71
2022/07/31 07:01:26;;;;;;;2.65;1.50;;;;;;;19.29;80.29;101507.25;5082054;28;20031;-72
2022/07/31 07:03:51;;;;;;;1.52;1.25;;;;;;;19.31;79.96;101517.75;5072407;28;20038;-72
2022/07/31 07:06:17;;;;;;;4.38;1.75;;;;;;;19.53;80.94;101521.25;5078601;28;20358;-71
2022/07/31 07:08:42;;;;;;;2.53;1.55;;;;;;;19.52;80.90;101530.31;5073004;28;20128;-72
2022/07/31 07:11:08;;;;;;;3.05;1.60;;;;;;;19.32;80.18;101514.06;5072231;28;20055;-71
2022/07/31 07:13:33;;;;;;;3.35;1.50;;;;;;;19.25;80.89;101511.34;5077172;28;20082;-71
2022/07/31 07:15:59;;;;;;;2.35;1.30;;;;;;;19.45;81.81;101516.88;5073513;28;20078;-71
2022/07/31 07:18:24;;;;;;;2.28;1.52;;;;;;;19.46;80.49;101493.59;5076832;28;20032;-71
2022/07/31 07:20:51;;;;;;;5.65;1.65;;;;;;;19.58;79.89;101505.44;5077967;28;20023;-71
2022/07/31 07:23:19;;;;;;;1.95;1.42;;;;;;;19.52;80.60;101503.53;5075830;28;20031;-71
2022/07/31 07:25:44;;;;;;;2.45;1.60;;;;;;;19.52;80.29;101499.00;5072093;28;20144;-70
2022/07/31 07:28:09;;;;;;;2.97;2.17;;;;;;;19.46;80.57;101490.91;5074079;28;20113;-71
2022/07/31 07:30:35;;;;;;;2.25;1.80;;;;;;;19.65;80.20;101492.94;5074328;28;20211;-71
2022/07/31 07:33:00;;;;;;;4.63;1.50;;;;;;;19.56;80.48;101494.09;5074204;28;20056;-71
2022/07/31 07:35:26;;;;;;;3.22;1.42;;;;;;;19.57;80.48;101490.38;5076801;28;20028;-71
2022/07/31 07:37:52;;;;;;;1.80;1.20;;;;;;;19.67;80.10;101474.00;5076091;28;20035;-71
2022/07/31 07:40:18;;;;;;;3.63;2.25;;;;;;;19.87;78.44;101484.88;5072454;28;20472;-71
2022/07/31 07:42:44;;;;;;;2.47;1.67;;;;;;;19.86;78.68;101467.13;5076876;28;20415;-71
2022/07/31 07:45:09;;;;;;;2.88;1.30;;;;;;;19.97;78.67;101477.34;5075909;28;20029;-71
2022/07/31 07:47:36;;;;;;;2.65;1.58;;;;;;;20.05;77.88;101477.16;5078180;28;20025;-72
2022/07/31 07:50:02;;;;;;;1.92;1.33;;;;;;;19.94;78.01;101467.00;5072591;28;20373;-71
2022/07/31 07:52:27;;;;;;;2.38;1.65;;;;;;;20.05;78.25;101461.06;5070005;28;20274;-71
2022/07/31 07:54:53;;;;;;;3.92;1.67;;;;;;;20.30;77.47;101468.63;5039377;28;20113;-71
2022/07/31 07:57:19;;;;;;;2.25;1.92;;;;;;;20.27;77.74;101469.03;5078525;28;20033;-73
2022/07/31 07:59:45;;;;;;;4.40;1.50;;;;;;;20.21;78.26;101462.63;5076692;28;20036;-71
2022/07/31 08:02:13;;;;;;;2.88;1.98;;;;;;;20.17;79.02;101463.22;5075152;28;20027;-72
2022/07/31 08:04:39;;;;;;;3.40;1.80;;;;;;;20.32;78.60;101472.78;5072497;28;20373;-71
2022/07/31 08:07:05;;;;;;;3.78;2.15;;;;;;;20.55;78.81;101475.13;5079764;28;20042;-71
2022/07/31 08:09:32;;;;;;;2.95;1.63;;;;;;;20.38;77.70;101470.31;5074290;28;20104;-71
2022/07/31 08:11:57;;;;;;;4.00;2.08;;;;;;;20.28;78.07;101470.69;5072424;28;20220;-71
2022/07/31 08:14:23;;;;;;;2.08;1.60;;;;;;;20.41;77.86;101469.94;5067578;28;20027;-71
2022/07/31 08:16:48;;;;;;;5.00;2.03;;;;;;;20.42;77.61;101475.06;5073834;28;20039;-72
2022/07/31 08:19:14;;;;;;;3.45;1.83;;;;;;;20.49;77.49;101478.63;5076608;28;20021;-71
2022/07/31 08:21:39;;;;;;;1.88;1.60;;;;;;;20.83;77.55;101476.06;5074479;28;20028;-72
2022/07/31 08:24:05;;;;;;;1.90;1.48;;;;;;;20.87;76.82;101469.28;5072326;28;20099;-72
2022/07/31 08:27:22;;;;;;;4.22;2.10;;;;;;;20.91;76.66;101474.03;5075956;28;20040;-71
2022/07/31 08:29:17;;;;;;;3.10;2.30;;;;;;;21.20;75.86;101468.50;5076956;28;20044;-71
2022/07/31 08:31:42;;;;;;;2.67;1.90;;;;;;;21.37;75.48;101473.25;5071419;28;20554;-71
2022/07/31 08:34:08;;;;;;;5.72;2.03;;;;;;;21.41;74.62;101488.97;5074413;28;20115;-71
2022/07/31 08:36:34;;;;;;;2.60;1.80;;;;;;;21.68;73.83;101469.13;5074954;28;20107;-71
2022/07/31 08:39:00;;;;;;;3.35;2.03;;;;;;;21.45;73.31;101482.16;5077674;28;20555;-71
2022/07/31 08:41:25;;;;;;;5.43;2.45;;;;;;;21.62;74.27;101494.13;5076866;28;20111;-71
2022/07/31 08:43:51;;;;;;;4.95;1.90;;;;;;;21.55;73.07;101496.81;5075701;28;20382;-71
2022/07/31 08:46:17;;;;;;;3.42;2.13;;;;;;;21.52;73.69;101483.00;5057268;28;20143;-73
2022/07/31 08:48:44;;;;;;;6.57;1.77;;;;;;;21.66;72.66;101489.19;5071167;28;20401;-71
2022/07/31 08:51:11;;;;;;;2.88;2.42;;;;;;;21.55;73.62;101478.03;5076406;28;20117;-72
2022/07/31 08:53:38;;;;;;;4.72;2.22;;;;;;;21.57;74.14;101480.50;5076868;28;20522;-72
2022/07/31 08:56:08;;;;;;;3.55;1.75;;;;;;;21.72;74.22;101485.66;5079287;28;20028;-72
2022/07/31 08:58:33;;;;;;;4.15;2.05;;;;;;;21.70;73.91;101485.06;5078628;28;20028;-72
2022/07/31 09:00:59;;;;;;;4.03;2.20;;;;;;;21.61;74.08;101487.13;5076759;28;20365;-73
2022/07/31 09:03:25;;;;;;;4.05;2.53;;;;;;;21.51;74.00;101484.00;5068097;28;20032;-74
2022/07/31 09:05:50;;;;;;;3.20;2.10;;;;;;;21.50;74.99;101471.63;5070018;28;20565;-73
2022/07/31 09:08:16;;;;;;;2.05;1.75;;;;;;;21.53;75.13;101474.72;5054366;28;20084;-71
2022/07/31 09:10:41;;;;;;;3.75;2.35;;;;;;;21.35;75.54;101480.69;5076504;28;20400;-71
2022/07/31 09:13:15;;;;;;;3.20;2.22;;;;;;;21.30;78.51;101482.34;5074594;28;20038;-71
2022/07/31 09:15:41;;;;;;;3.92;2.15;;;;;;;21.37;79.31;101481.31;5077396;28;20449;-73
2022/07/31 09:18:20;;;;;;;4.03;2.20;;;;;;;21.38;79.16;101474.06;5077398;28;20214;-73
2022/07/31 09:20:59;;;;;;;2.60;2.10;;;;;;;21.51;79.96;101484.00;5071588;28;20172;-72
2022/07/31 09:23:26;;;;;;;2.58;2.08;;;;;;;21.46;81.72;101473.91;5073609;28;20032;-71
2022/07/31 09:26:01;;;;;;;6.03;2.90;;;;;;;21.40;81.80;101479.25;5077563;28;20139;-73
2022/07/31 09:28:36;;;;;;;3.70;2.42;;;;;;;21.16;83.20;101474.28;5069818;28;20075;-71
2022/07/31 09:31:03;;;;;;;13.70;3.03;;;;;;;21.03;83.45;101478.78;5066187;28;20024;-72
2022/07/31 09:33:29;;;;;;;4.63;3.00;;;;;;;20.79;85.06;101470.28;5067287;28;20035;-72
2022/07/31 09:35:56;;;;;;;3.30;2.20;;;;;;;20.87;87.43;101463.91;5059199;28;20464;-72
2022/07/31 09:38:32;;;;;;;4.78;3.15;;;;;;;21.01;87.29;101475.47;5070251;28;20016;-72
2022/07/31 09:41:27;;;;;;;6.03;2.60;;;;;;;20.85;88.76;101476.69;5071450;28;20024;-73
2022/07/31 09:44:01;;;;;;;3.13;2.70;;;;;;;21.00;90.33;101479.22;5061345;28;20123;-72
2022/07/31 09:46:39;;;;;;;4.60;3.38;;;;;;;21.09;90.36;101476.13;5068279;28;20051;-72
2022/07/31 09:49:04;;;;;;;4.70;2.53;;;;;;;20.91;90.79;101474.03;5062953;28;20116;-72
2022/07/31 09:51:41;;;;;;;4.28;2.47;;;;;;;20.80;93.06;101458.53;5056250;28;20544;-72
2022/07/31 09:54:07;;;;;;;4.88;2.78;;;;;;;20.87;95.86;101463.91;5076568;28;20127;-72
2022/07/31 09:56:33;;;;;;;3.63;2.60;;;;;;;20.70;95.75;101460.75;5080033;28;20262;-72
2022/07/31 09:59:00;;;;;;;7.22;2.90;;;;;;;20.60;97.97;101471.88;5072337;28;20557;-72
2022/07/31 10:01:26;;;;;;;3.15;2.75;;;;;;;20.47;97.80;101459.22;5076711;28;20468;-72
2022/07/31 10:03:54;;;;;;;3.83;3.22;;;;;;;20.35;97.84;101456.28;5072159;28;20035;-72
2022/07/31 10:06:24;;;;;;;5.65;3.55;;;;;;;20.33;99.79;101469.03;5075664;28;20061;-72
2022/07/31 10:08:51;;;;;;;7.10;3.83;;;;;;;20.26;99.66;101468.19;5079758;28;20035;-72
2022/07/31 10:11:18;;;;;;;4.40;3.10;;;;;;;20.07;100.00;101458.22;5077402;28;20028;-72
2022/07/31 10:13:51;;;;;;;6.10;3.65;;;;;;;20.12;100.00;101472.69;5069673;28;20020;-72
2022/07/31 10:16:21;;;;;;;5.93;3.70;;;;;;;20.11;100.00;101462.97;5075919;28;20509;-72
2022/07/31 10:18:50;;;;;;;9.73;4.22;;;;;;;20.17;100.00;101468.59;5076157;28;20055;-72
2022/07/31 10:21:16;;;;;;;5.05;3.50;;;;;;;20.00;100.00;101435.91;5081343;28;20022;-72
2022/07/31 10:23:43;;;;;;;5.93;4.30;;;;;;;19.90;100.00;101455.88;5080017;28;20016;-72
2022/07/31 10:26:09;;;;;;;5.50;4.25;;;;;;;19.82;100.00;101455.19;5075873;28;20045;-72
2022/07/31 10:28:38;;;;;;;5.20;3.83;;;;;;;19.68;100.00;101465.75;5084962;28;20101;-72
2022/07/31 10:31:04;;;;;;;9.32;4.25;;;;;;;19.65;100.00;101463.47;5078210;28;20457;-73
2022/07/31 10:33:31;;;;;;;7.25;4.75;;;;;;;19.57;100.00;101458.25;5074354;28;20085;-73
2022/07/31 10:36:11;;;;;;;5.82;4.45;;;;;;;19.48;100.00;101449.53;5077584;28;20039;-73
2022/07/31 10:38:41;;;;;;;9.88;4.72;;;;;;;19.39;100.00;101460.59;5077168;28;20060;-73
2022/07/31 10:41:16;;;;;;;6.30;4.82;;;;;;;19.21;100.00;101445.84;5066400;28;20120;-73
2022/07/31 10:43:51;;;;;;;8.55;4.60;;;;;;;19.40;100.00;101456.88;5078479;28;20066;-71
2022/07/31 10:46:30;;;;;;;6.47;4.32;;;;;;;19.35;100.00;101459.31;5085897;28;20028;-73
2022/07/31 10:48:56;;;;;;;8.43;4.70;;;;;;;19.42;100.00;101450.31;5080271;28;20028;-73
2022/07/31 10:51:22;;;;;;;7.90;5.28;;;;;;;19.37;100.00;101449.25;5086573;28;20039;-73
2022/07/31 10:54:01;;;;;;;5.70;4.00;;;;;;;19.20;100.00;101446.03;5080459;28;20025;-73
2022/07/31 10:56:27;;;;;;;6.78;4.38;;;;;;;19.21;100.00;101440.47;5081743;28;20058;-73
2022/07/31 10:58:57;;;;;;;7.65;4.88;;;;;;;19.23;100.00;101443.81;5052829;28;20556;-75
2022/07/31 11:01:24;;;;;;;11.50;4.37;;;;;;;19.14;100.00;101442.28;5075612;28;20032;-74
2022/07/31 11:03:58;;;;;;;6.55;4.72;;;;;;;18.97;100.00;101441.72;5069258;28;20481;-73
2022/07/31 11:06:25;;;;;;;7.95;4.78;;;;;;;18.84;100.00;101438.91;5079854;28;20074;-73
2022/07/31 11:08:52;;;;;;;7.30;4.72;;;;;;;18.87;100.00;101433.97;5080329;28;20032;-74
2022/07/31 11:11:30;;;;;;;6.85;5.22;;;;;;;18.78;100.00;101439.66;5077091;28;20024;-74
2022/07/31 11:13:56;;;;;;;9.02;5.07;;;;;;;18.60;100.00;101437.38;5051843;28;20025;-74
2022/07/31 11:16:22;;;;;;;7.03;5.28;;;;;;;18.47;100.00;101424.69;5080586;28;20511;-74
2022/07/31 11:19:05;;;;;;;7.55;5.53;;;;;;;18.37;100.00;101419.63;5059046;28;20028;-74
2022/07/31 11:21:39;;;;;;;10.23;5.63;;;;;;;18.57;100.00;101435.06;5054258;28;20399;-72
2022/07/31 11:24:16;;;;;;;10.30;5.32;;;;;;;18.54;100.00;101430.13;5081667;28;20028;-74
2022/07/31 11:26:48;;;;;;;6.45;5.50;;;;;;;18.39;100.00;101417.59;5066070;28;20059;-73